sensor_id;sensor_type;location;lat;lon;timestamp;pressure;altitude;pressure_sealevel;temperature;humidity
79150;BME280;68563;45.644;13.782;2023-12-20T00:01:40;101166.63;;;8.13;66.25
79150;BME280;68563;45.644;13.782;2023-12-20T00:04:05;101154.53;;;8.07;65.58
79150;BME280;68563;45.644;13.782;2023-12-20T00:06:31;101171.78;;;8.21;65.53
79150;BME280;68563;45.644;13.782;2023-12-20T00:08:56;101157.16;;;8.09;65.03
79150;BME280;68563;45.644;13.782;2023-12-20T00:11:23;101167.50;;;8.17;64.75
79150;BME280;68563;45.644;13.782;2023-12-20T00:13:48;101164.88;;;8.09;64.82
79150;BME280;68563;45.644;13.782;2023-12-20T00:16:14;101162.31;;;8.10;64.46
79150;BME280;68563;45.644;13.782;2023-12-20T00:18:39;101145.06;;;8.05;64.37
79150;BME280;68563;45.644;13.782;2023-12-20T00:21:05;101143.41;;;8.10;64.20
79150;BME280;68563;45.644;13.782;2023-12-20T00:23:30;101134.78;;;8.11;63.34
79150;BME280;68563;45.644;13.782;2023-12-20T00:25:55;101128.75;;;8.06;63.29
79150;BME280;68563;45.644;13.782;2023-12-20T00:28:21;101105.50;;;7.98;62.93
79150;BME280;68563;45.644;13.782;2023-12-20T00:30:48;101117.50;;;7.97;62.56
79150;BME280;68563;45.644;13.782;2023-12-20T00:33:13;101117.56;;;8.07;62.51
79150;BME280;68563;45.644;13.782;2023-12-20T00:35:38;101108.97;;;8.06;62.12
79150;BME280;68563;45.644;13.782;2023-12-20T00:38:04;101115.00;;;8.07;62.32
79150;BME280;68563;45.644;13.782;2023-12-20T00:40:31;101114.13;;;8.03;62.01
79150;BME280;68563;45.644;13.782;2023-12-20T00:42:58;101114.09;;;8.00;62.27
79150;BME280;68563;45.644;13.782;2023-12-20T00:45:23;101102.06;;;8.04;61.91
79150;BME280;68563;45.644;13.782;2023-12-20T00:47:48;101090.91;;;8.03;61.26
79150;BME280;68563;45.644;13.782;2023-12-20T00:50:14;101081.44;;;8.01;61.89
79150;BME280;68563;45.644;13.782;2023-12-20T00:52:39;101096.06;;;8.03;62.18
79150;BME280;68563;45.644;13.782;2023-12-20T00:55:05;101087.44;;;7.99;62.40
79150;BME280;68563;45.644;13.782;2023-12-20T00:57:31;101089.16;;;7.97;61.54
79150;BME280;68563;45.644;13.782;2023-12-20T00:59:56;101070.19;;;7.88;61.81
79150;BME280;68563;45.644;13.782;2023-12-20T01:02:21;101078.84;;;7.94;61.95
79150;BME280;68563;45.644;13.782;2023-12-20T01:04:47;101076.22;;;7.90;61.65
79150;BME280;68563;45.644;13.782;2023-12-20T01:07:12;101072.78;;;7.94;61.55
79150;BME280;68563;45.644;13.782;2023-12-20T01:09:38;101059.94;;;7.95;61.59
79150;BME280;68563;45.644;13.782;2023-12-20T01:12:03;101070.22;;;7.94;61.76
79150;BME280;68563;45.644;13.782;2023-12-20T01:14:29;101063.38;;;7.93;61.56
79150;BME280;68563;45.644;13.782;2023-12-20T01:16:54;101066.78;;;7.92;61.67
79150;BME280;68563;45.644;13.782;2023-12-20T01:19:19;101056.44;;;7.90;61.71
79150;BME280;68563;45.644;13.782;2023-12-20T01:21:45;101059.06;;;7.93;61.42
79150;BME280;68563;45.644;13.782;2023-12-20T01:24:10;101065.91;;;7.91;61.62
79150;BME280;68563;45.644;13.782;2023-12-20T01:26:35;101062.47;;;7.92;61.72
79150;BME280;68563;45.644;13.782;2023-12-20T01:29:01;101059.91;;;7.89;61.87
79150;BME280;68563;45.644;13.782;2023-12-20T01:31:26;101051.28;;;7.89;61.92
79150;BME280;68563;45.644;13.782;2023-12-20T01:33:52;101047.84;;;7.83;62.04
79150;BME280;68563;45.644;13.782;2023-12-20T01:36:18;101052.19;;;7.89;61.17
79150;BME280;68563;45.644;13.782;2023-12-20T01:38:43;101044.44;;;7.89;60.72
79150;BME280;68563;45.644;13.782;2023-12-20T01:41:08;101031.53;;;7.89;60.89
79150;BME280;68563;45.644;13.782;2023-12-20T01:43:34;101035.81;;;7.81;61.29
79150;BME280;68563;45.644;13.782;2023-12-20T01:46:00;101031.50;;;7.81;61.53
79150;BME280;68563;45.644;13.782;2023-12-20T01:48:26;101029.78;;;7.82;61.06
79150;BME280;68563;45.644;13.782;2023-12-20T01:50:53;101019.44;;;7.76;61.25
79150;BME280;68563;45.644;13.782;2023-12-20T01:53:21;101016.88;;;7.77;61.22
79150;BME280;68563;45.644;13.782;2023-12-20T01:55:49;101026.31;;;7.77;61.86
79150;BME280;68563;45.644;13.782;2023-12-20T01:58:15;101016.00;;;7.77;62.15
79150;BME280;68563;45.644;13.782;2023-12-20T02:00:42;101009.13;;;7.76;61.96
79150;BME280;68563;45.644;13.782;2023-12-20T02:03:07;101001.44;;;7.90;61.45
79150;BME280;68563;45.644;13.782;2023-12-20T02:05:35;100987.63;;;7.75;61.23
79150;BME280;68563;45.644;13.782;2023-12-20T02:08:02;100987.66;;;7.78;60.91
79150;BME280;68563;45.644;13.782;2023-12-20T02:10:27;100983.34;;;7.80;61.04
79150;BME280;68563;45.644;13.782;2023-12-20T02:12:52;100973.91;;;7.79;61.26
79150;BME280;68563;45.644;13.782;2023-12-20T02:15:18;100966.13;;;7.73;61.16
79150;BME280;68563;45.644;13.782;2023-12-20T02:17:45;100969.59;;;7.75;60.87
79150;BME280;68563;45.644;13.782;2023-12-20T02:20:11;100961.84;;;7.75;61.39
79150;BME280;68563;45.644;13.782;2023-12-20T02:22:37;100961.84;;;7.75;61.70
79150;BME280;68563;45.644;13.782;2023-12-20T02:25:02;100955.00;;;7.77;61.75
79150;BME280;68563;45.644;13.782;2023-12-20T02:27:28;100951.56;;;7.78;61.62
79150;BME280;68563;45.644;13.782;2023-12-20T02:29:55;100961.03;;;7.82;61.59
79150;BME280;68563;45.644;13.782;2023-12-20T02:32:22;100961.03;;;7.82;61.22
79150;BME280;68563;45.644;13.782;2023-12-20T02:34:51;100967.03;;;7.83;61.04
79150;BME280;68563;45.644;13.782;2023-12-20T02:37:16;100950.69;;;7.76;61.11
79150;BME280;68563;45.644;13.782;2023-12-20T02:39:41;100961.88;;;7.81;60.94
79150;BME280;68563;45.644;13.782;2023-12-20T02:42:07;100958.44;;;7.78;60.65
79150;BME280;68563;45.644;13.782;2023-12-20T02:44:32;100966.16;;;7.79;60.53
79150;BME280;68563;45.644;13.782;2023-12-20T02:46:57;100962.72;;;7.76;60.40
79150;BME280;68563;45.644;13.782;2023-12-20T02:49:23;100967.88;;;7.77;60.90
79150;BME280;68563;45.644;13.782;2023-12-20T02:51:48;100960.97;;;7.69;60.79
79150;BME280;68563;45.644;13.782;2023-12-20T02:54:14;100961.84;;;7.69;61.33
79150;BME280;68563;45.644;13.782;2023-12-20T02:56:39;100954.09;;;7.71;61.14
79150;BME280;68563;45.644;13.782;2023-12-20T02:59:05;100960.97;;;7.69;61.03
79150;BME280;68563;45.644;13.782;2023-12-20T03:01:42;100956.72;;;7.74;60.80
79150;BME280;68563;45.644;13.782;2023-12-20T03:04:08;100939.50;;;7.68;60.72
79150;BME280;68563;45.644;13.782;2023-12-20T03:06:33;100943.78;;;7.72;60.67
79150;BME280;68563;45.644;13.782;2023-12-20T03:08:58;100942.06;;;7.70;60.22
79150;BME280;68563;45.644;13.782;2023-12-20T03:11:26;100934.31;;;7.62;60.70
79150;BME280;68563;45.644;13.782;2023-12-20T03:13:52;100929.16;;;7.63;60.77
79150;BME280;68563;45.644;13.782;2023-12-20T03:16:18;100924.88;;;7.58;60.39
79150;BME280;68563;45.644;13.782;2023-12-20T03:18:43;100927.44;;;7.61;60.55
79150;BME280;68563;45.644;13.782;2023-12-20T03:21:09;100924.88;;;7.67;60.32
79150;BME280;68563;45.644;13.782;2023-12-20T03:23:34;100929.19;;;7.68;60.12
79150;BME280;68563;45.644;13.782;2023-12-20T03:26:00;100925.75;;;7.63;60.55
79150;BME280;68563;45.644;13.782;2023-12-20T03:28:26;100931.78;;;7.65;60.84
79150;BME280;68563;45.644;13.782;2023-12-20T03:30:52;100931.78;;;7.65;60.42
79150;BME280;68563;45.644;13.782;2023-12-20T03:33:17;100926.59;;;7.63;60.24
79150;BME280;68563;45.644;13.782;2023-12-20T03:35:42;100929.19;;;7.68;60.02
79150;BME280;68563;45.644;13.782;2023-12-20T03:38:08;100926.59;;;7.63;60.14
79150;BME280;68563;45.644;13.782;2023-12-20T03:40:33;100926.59;;;7.70;59.74
79150;BME280;68563;45.644;13.782;2023-12-20T03:42:59;100925.75;;;7.68;60.09
79150;BME280;68563;45.644;13.782;2023-12-20T03:45:24;100924.00;;;7.62;60.81
79150;BME280;68563;45.644;13.782;2023-12-20T03:47:50;100924.00;;;7.62;60.92
79150;BME280;68563;45.644;13.782;2023-12-20T03:50:20;100919.72;;;7.61;61.00
79150;BME280;68563;45.644;13.782;2023-12-20T03:52:46;100918.88;;;7.65;60.87
79150;BME280;68563;45.644;13.782;2023-12-20T03:55:11;100918.88;;;7.65;60.81
79150;BME280;68563;45.644;13.782;2023-12-20T03:57:36;100910.28;;;7.71;60.69
79150;BME280;68563;45.644;13.782;2023-12-20T04:00:02;100906.84;;;7.67;60.94
79150;BME280;68563;45.644;13.782;2023-12-20T04:02:27;100907.69;;;7.71;60.92
79150;BME280;68563;45.644;13.782;2023-12-20T04:04:53;100912.00;;;7.64;61.22
79150;BME280;68563;45.644;13.782;2023-12-20T04:07:18;100909.41;;;7.65;61.43
79150;BME280;68563;45.644;13.782;2023-12-20T04:09:44;100910.28;;;7.63;61.40
79150;BME280;68563;45.644;13.782;2023-12-20T04:12:09;100910.25;;;7.66;61.46
79150;BME280;68563;45.644;13.782;2023-12-20T04:14:34;100916.28;;;7.62;60.94
79150;BME280;68563;45.644;13.782;2023-12-20T04:17:00;100905.97;;;7.63;60.12
79150;BME280;68563;45.644;13.782;2023-12-20T04:19:25;100907.69;;;7.63;60.09
79150;BME280;68563;45.644;13.782;2023-12-20T04:21:51;100908.53;;;7.59;60.15
79150;BME280;68563;45.644;13.782;2023-12-20T04:24:16;100910.25;;;7.58;59.91
79150;BME280;68563;45.644;13.782;2023-12-20T04:26:41;100900.78;;;7.53;59.83
79150;BME280;68563;45.644;13.782;2023-12-20T04:29:07;100900.78;;;7.51;60.11
79150;BME280;68563;45.644;13.782;2023-12-20T04:31:32;100899.03;;;7.44;59.97
79150;BME280;68563;45.644;13.782;2023-12-20T04:33:57;100896.47;;;7.50;60.02
79150;BME280;68563;45.644;13.782;2023-12-20T04:36:23;100895.56;;;7.42;60.35
79150;BME280;68563;45.644;13.782;2023-12-20T04:38:50;100892.16;;;7.43;60.13
79150;BME280;68563;45.644;13.782;2023-12-20T04:41:15;100885.28;;;7.40;60.36
79150;BME280;68563;45.644;13.782;2023-12-20T04:43:41;100886.97;;;7.35;60.55
79150;BME280;68563;45.644;13.782;2023-12-20T04:46:06;100877.53;;;7.40;60.68
79150;BME280;68563;45.644;13.782;2023-12-20T04:48:32;100888.75;;;7.47;61.15
79150;BME280;68563;45.644;13.782;2023-12-20T04:50:57;100871.53;;;7.41;61.86
79150;BME280;68563;45.644;13.782;2023-12-20T04:53:22;100883.59;;;7.55;62.36
79150;BME280;68563;45.644;13.782;2023-12-20T04:55:48;100880.16;;;7.57;62.40
79150;BME280;68563;45.644;13.782;2023-12-20T04:58:13;100871.59;;;7.57;62.83
79150;BME280;68563;45.644;13.782;2023-12-20T05:00:40;100855.25;;;7.51;62.86
79150;BME280;68563;45.644;13.782;2023-12-20T05:03:05;100852.69;;;7.58;62.64
79150;BME280;68563;45.644;13.782;2023-12-20T05:05:31;100859.59;;;7.71;62.66
79150;BME280;68563;45.644;13.782;2023-12-20T05:07:57;100851.81;;;7.57;62.29
79150;BME280;68563;45.644;13.782;2023-12-20T05:10:22;100846.66;;;7.59;61.53
79150;BME280;68563;45.644;13.782;2023-12-20T05:12:47;100844.94;;;7.55;60.52
79150;BME280;68563;45.644;13.782;2023-12-20T05:15:13;100827.72;;;7.37;60.94
79150;BME280;68563;45.644;13.782;2023-12-20T05:17:38;100834.63;;;7.51;60.60
79150;BME280;68563;45.644;13.782;2023-12-20T05:20:04;100830.34;;;7.54;60.63
79150;BME280;68563;45.644;13.782;2023-12-20T05:22:30;100826.03;;;7.53;60.70
79150;BME280;68563;45.644;13.782;2023-12-20T05:24:55;100827.78;;;7.57;61.08
79150;BME280;68563;45.644;13.782;2023-12-20T05:27:20;100820.91;;;7.57;61.37
79150;BME280;68563;45.644;13.782;2023-12-20T05:29:46;100815.75;;;7.56;61.38
79150;BME280;68563;45.644;13.782;2023-12-20T05:32:11;100822.63;;;7.63;61.14
79150;BME280;68563;45.644;13.782;2023-12-20T05:34:36;100814.03;;;7.67;60.70
79150;BME280;68563;45.644;13.782;2023-12-20T05:37:02;100803.75;;;7.64;60.28
79150;BME280;68563;45.644;13.782;2023-12-20T05:39:28;100802.84;;;7.59;60.29
79150;BME280;68563;45.644;13.782;2023-12-20T05:41:53;100810.59;;;7.63;60.36
79150;BME280;68563;45.644;13.782;2023-12-20T05:44:19;100805.47;;;7.65;59.54
79150;BME280;68563;45.644;13.782;2023-12-20T05:46:44;100800.31;;;7.66;59.53
79150;BME280;68563;45.644;13.782;2023-12-20T05:49:09;100797.72;;;7.66;59.49
79150;BME280;68563;45.644;13.782;2023-12-20T05:51:35;100794.28;;;7.66;59.77
79150;BME280;68563;45.644;13.782;2023-12-20T05:54:01;100801.16;;;7.69;59.63
79150;BME280;68563;45.644;13.782;2023-12-20T05:56:26;100796.00;;;7.61;59.66
79150;BME280;68563;45.644;13.782;2023-12-20T05:58:52;100817.47;;;7.66;59.97
79150;BME280;68563;45.644;13.782;2023-12-20T06:01:17;100822.66;;;7.61;60.18
79150;BME280;68563;45.644;13.782;2023-12-20T06:03:43;100819.19;;;7.58;60.35
79150;BME280;68563;45.644;13.782;2023-12-20T06:06:09;100819.19;;;7.53;61.47
79150;BME280;68563;45.644;13.782;2023-12-20T06:08:35;100821.72;;;7.51;62.29
79150;BME280;68563;45.644;13.782;2023-12-20T06:11:00;100818.31;;;7.45;62.69
79150;BME280;68563;45.644;13.782;2023-12-20T06:13:26;100812.28;;;7.41;63.06
79150;BME280;68563;45.644;13.782;2023-12-20T06:15:52;100821.72;;;7.45;62.98
79150;BME280;68563;45.644;13.782;2023-12-20T06:18:17;100820.88;;;7.46;63.20
79150;BME280;68563;45.644;13.782;2023-12-20T06:20:44;100821.75;;;7.47;62.96
79150;BME280;68563;45.644;13.782;2023-12-20T06:23:09;100820.88;;;7.48;63.30
79150;BME280;68563;45.644;13.782;2023-12-20T06:25:35;100824.31;;;7.48;63.21
79150;BME280;68563;45.644;13.782;2023-12-20T06:28:00;100824.31;;;7.48;63.47
79150;BME280;68563;45.644;13.782;2023-12-20T06:30:25;100822.63;;;7.63;63.03
79150;BME280;68563;45.644;13.782;2023-12-20T06:32:53;100810.56;;;7.46;63.09
79150;BME280;68563;45.644;13.782;2023-12-20T06:35:18;100818.28;;;7.48;63.21
79150;BME280;68563;45.644;13.782;2023-12-20T06:37:44;100820.03;;;7.46;63.61
79150;BME280;68563;45.644;13.782;2023-12-20T06:40:10;100820.00;;;7.44;63.59
79150;BME280;68563;45.644;13.782;2023-12-20T06:42:36;100820.88;;;7.43;64.50
79150;BME280;68563;45.644;13.782;2023-12-20T06:45:02;100825.16;;;7.43;65.07
79150;BME280;68563;45.644;13.782;2023-12-20T06:47:27;100820.88;;;7.45;65.78
79150;BME280;68563;45.644;13.782;2023-12-20T06:49:52;100814.84;;;7.44;65.90
79150;BME280;68563;45.644;13.782;2023-12-20T06:52:18;100814.00;;;7.45;65.43
79150;BME280;68563;45.644;13.782;2023-12-20T06:54:43;100802.00;;;7.46;64.50
79150;BME280;68563;45.644;13.782;2023-12-20T06:57:09;100808.84;;;7.42;63.89
79150;BME280;68563;45.644;13.782;2023-12-20T06:59:41;100805.41;;;7.46;63.25
79150;BME280;68563;45.644;13.782;2023-12-20T07:02:07;100814.00;;;7.48;62.89
79150;BME280;68563;45.644;13.782;2023-12-20T07:04:33;100826.03;;;7.51;63.00
79150;BME280;68563;45.644;13.782;2023-12-20T07:06:58;100821.75;;;7.47;63.22
79150;BME280;68563;45.644;13.782;2023-12-20T07:09:26;100826.88;;;7.51;63.23
79150;BME280;68563;45.644;13.782;2023-12-20T07:11:52;100831.19;;;7.53;63.12
79150;BME280;68563;45.644;13.782;2023-12-20T07:14:17;100807.13;;;7.47;62.45
79150;BME280;68563;45.644;13.782;2023-12-20T07:16:42;100811.47;;;7.61;61.38
79150;BME280;68563;45.644;13.782;2023-12-20T07:19:08;100815.75;;;7.62;61.33
79150;BME280;68563;45.644;13.782;2023-12-20T07:21:33;100813.16;;;7.56;60.82
79150;BME280;68563;45.644;13.782;2023-12-20T07:23:59;100810.63;;;7.71;60.06
79150;BME280;68563;45.644;13.782;2023-12-20T07:26:24;100808.88;;;8.60;59.08
79150;BME280;68563;45.644;13.782;2023-12-20T07:28:49;100800.66;;;9.62;56.28
79150;BME280;68563;45.644;13.782;2023-12-20T07:31:15;100800.06;;;10.38;53.50
79150;BME280;68563;45.644;13.782;2023-12-20T07:33:41;100790.78;;;10.96;51.27
79150;BME280;68563;45.644;13.782;2023-12-20T07:36:07;100798.19;;;11.24;50.40
79150;BME280;68563;45.644;13.782;2023-12-20T07:38:33;100791.91;;;11.39;49.80
79150;BME280;68563;45.644;13.782;2023-12-20T07:40:58;100793.75;;;11.31;50.19
79150;BME280;68563;45.644;13.782;2023-12-20T07:43:23;100793.28;;;11.02;50.76
79150;BME280;68563;45.644;13.782;2023-12-20T07:45:49;100802.25;;;10.74;51.27
79150;BME280;68563;45.644;13.782;2023-12-20T07:48:14;100797.38;;;10.46;51.12
79150;BME280;68563;45.644;13.782;2023-12-20T07:50:40;100796.66;;;10.28;51.77
79150;BME280;68563;45.644;13.782;2023-12-20T07:53:05;100784.72;;;10.12;52.94
79150;BME280;68563;45.644;13.782;2023-12-20T07:55:32;100788.28;;;10.03;53.45
79150;BME280;68563;45.644;13.782;2023-12-20T07:57:59;100801.25;;;9.97;54.01
79150;BME280;68563;45.644;13.782;2023-12-20T08:00:25;100804.75;;;9.88;54.49
79150;BME280;68563;45.644;13.782;2023-12-20T08:02:52;100791.94;;;9.71;54.41
79150;BME280;68563;45.644;13.782;2023-12-20T08:05:17;100794.53;;;9.71;54.24
79150;BME280;68563;45.644;13.782;2023-12-20T08:07:43;100800.69;;;9.56;54.58
79150;BME280;68563;45.644;13.782;2023-12-20T08:10:08;100798.09;;;9.53;54.76
79150;BME280;68563;45.644;13.782;2023-12-20T08:12:34;100802.44;;;9.55;55.24
79150;BME280;68563;45.644;13.782;2023-12-20T08:14:59;100797.19;;;9.63;54.74
79150;BME280;68563;45.644;13.782;2023-12-20T08:17:25;100805.84;;;9.59;54.93
79150;BME280;68563;45.644;13.782;2023-12-20T08:19:51;100808.44;;;9.56;55.43
79150;BME280;68563;45.644;13.782;2023-12-20T08:22:17;100798.16;;;9.50;55.90
79150;BME280;68563;45.644;13.782;2023-12-20T08:24:42;100820.53;;;9.51;56.38
79150;BME280;68563;45.644;13.782;2023-12-20T08:27:07;100823.13;;;9.51;56.41
79150;BME280;68563;45.644;13.782;2023-12-20T08:29:34;100824.00;;;9.47;56.50
79150;BME280;68563;45.644;13.782;2023-12-20T08:32:00;100824.03;;;9.44;57.21
79150;BME280;68563;45.644;13.782;2023-12-20T08:34:25;100830.94;;;9.45;57.17
79150;BME280;68563;45.644;13.782;2023-12-20T08:36:51;100832.66;;;9.41;57.09
79150;BME280;68563;45.644;13.782;2023-12-20T08:39:17;100827.47;;;9.39;57.08
79150;BME280;68563;45.644;13.782;2023-12-20T08:41:42;100834.38;;;9.42;56.65
79150;BME280;68563;45.644;13.782;2023-12-20T08:44:08;100841.25;;;9.43;56.81
79150;BME280;68563;45.644;13.782;2023-12-20T08:46:33;100844.72;;;9.44;56.66
79150;BME280;68563;45.644;13.782;2023-12-20T08:48:59;100842.16;;;9.39;57.05
79150;BME280;68563;45.644;13.782;2023-12-20T08:51:25;100842.16;;;9.37;57.29
79150;BME280;68563;45.644;13.782;2023-12-20T08:53:51;100843.88;;;9.37;57.75
79150;BME280;68563;45.644;13.782;2023-12-20T08:56:16;100841.31;;;9.34;57.86
79150;BME280;68563;45.644;13.782;2023-12-20T08:58:43;100845.63;;;9.36;58.31
79150;BME280;68563;45.644;13.782;2023-12-20T09:01:09;100832.66;;;9.42;58.16
79150;BME280;68563;45.644;13.782;2023-12-20T09:03:34;100843.00;;;9.46;58.51
79150;BME280;68563;45.644;13.782;2023-12-20T09:05:59;100850.72;;;9.52;58.84
79150;BME280;68563;45.644;13.782;2023-12-20T09:08:25;100851.59;;;9.49;59.32
79150;BME280;68563;45.644;13.782;2023-12-20T09:10:50;100855.91;;;9.47;60.19
79150;BME280;68563;45.644;13.782;2023-12-20T09:13:16;100854.19;;;9.45;60.18
79150;BME280;68563;45.644;13.782;2023-12-20T09:15:41;100859.34;;;9.46;60.14
79150;BME280;68563;45.644;13.782;2023-12-20T09:18:07;100861.00;;;9.58;59.39
79150;BME280;68563;45.644;13.782;2023-12-20T09:20:33;100859.28;;;9.62;59.09
79150;BME280;68563;45.644;13.782;2023-12-20T09:22:59;100840.41;;;9.46;59.04
79150;BME280;68563;45.644;13.782;2023-12-20T09:25:24;100861.88;;;9.57;59.33
79150;BME280;68563;45.644;13.782;2023-12-20T09:27:51;100859.25;;;9.63;58.66
79150;BME280;68563;45.644;13.782;2023-12-20T09:30:18;100852.28;;;9.74;58.30
79150;BME280;68563;45.644;13.782;2023-12-20T09:32:43;100855.75;;;9.72;58.43
79150;BME280;68563;45.644;13.782;2023-12-20T09:35:09;100866.88;;;9.82;58.50
79150;BME280;68563;45.644;13.782;2023-12-20T09:37:34;100862.56;;;9.84;58.45
79150;BME280;68563;45.644;13.782;2023-12-20T09:40:00;100866.84;;;9.88;58.98
79150;BME280;68563;45.644;13.782;2023-12-20T09:42:39;100854.00;;;9.77;59.21
79150;BME280;68563;45.644;13.782;2023-12-20T09:45:09;100859.19;;;9.71;59.53
79150;BME280;68563;45.644;13.782;2023-12-20T09:47:35;100857.50;;;9.67;59.37
79150;BME280;68563;45.644;13.782;2023-12-20T09:50:02;100848.84;;;9.77;59.01
79150;BME280;68563;45.644;13.782;2023-12-20T09:52:28;100854.81;;;9.81;58.91
79150;BME280;68563;45.644;13.782;2023-12-20T09:54:55;100831.47;;;9.90;58.90
79150;BME280;68563;45.644;13.782;2023-12-20T09:57:22;100834.09;;;9.87;59.01
79150;BME280;68563;45.644;13.782;2023-12-20T09:59:47;100821.97;;;9.97;59.27
79150;BME280;68563;45.644;13.782;2023-12-20T10:02:13;100819.41;;;9.90;59.06
79150;BME280;68563;45.644;13.782;2023-12-20T10:04:46;100812.38;;;10.05;58.59
79150;BME280;68563;45.644;13.782;2023-12-20T10:07:15;100808.13;;;9.99;58.58
79150;BME280;68563;45.644;13.782;2023-12-20T10:09:41;100805.59;;;9.92;59.15
79150;BME280;68563;45.644;13.782;2023-12-20T10:12:07;100794.28;;;10.06;58.58
79150;BME280;68563;45.644;13.782;2023-12-20T10:14:33;100782.16;;;10.12;57.67
79150;BME280;68563;45.644;13.782;2023-12-20T10:17:05;100778.63;;;10.19;57.56
79150;BME280;68563;45.644;13.782;2023-12-20T10:19:31;100774.34;;;10.13;57.68
79150;BME280;68563;45.644;13.782;2023-12-20T10:22:00;100777.00;;;10.10;57.77
79150;BME280;68563;45.644;13.782;2023-12-20T10:24:28;100771.84;;;10.05;58.07
79150;BME280;68563;45.644;13.782;2023-12-20T10:27:04;100777.00;;;10.07;58.02
79150;BME280;68563;45.644;13.782;2023-12-20T10:29:33;100764.09;;;10.05;57.90
79150;BME280;68563;45.644;13.782;2023-12-20T10:31:59;100760.63;;;10.08;57.85
79150;BME280;68563;45.644;13.782;2023-12-20T10:34:25;100761.44;;;10.15;57.99
79150;BME280;68563;45.644;13.782;2023-12-20T10:36:51;100759.72;;;10.14;58.40
79150;BME280;68563;45.644;13.782;2023-12-20T10:39:17;100752.94;;;10.00;58.60
79150;BME280;68563;45.644;13.782;2023-12-20T10:41:43;100757.22;;;10.03;58.93
79150;BME280;68563;45.644;13.782;2023-12-20T10:44:10;100747.63;;;10.13;59.58
79150;BME280;68563;45.644;13.782;2023-12-20T10:46:37;100734.59;;;10.20;59.67
79150;BME280;68563;45.644;13.782;2023-12-20T10:49:05;100735.34;;;10.33;60.01
79150;BME280;68563;45.644;13.782;2023-12-20T10:51:34;100731.88;;;10.33;60.16
79150;BME280;68563;45.644;13.782;2023-12-20T10:54:00;100738.91;;;10.21;60.46
79150;BME280;68563;45.644;13.782;2023-12-20T10:56:32;100726.91;;;10.17;60.76
79150;BME280;68563;45.644;13.782;2023-12-20T10:59:02;100727.81;;;10.12;61.24
79150;BME280;68563;45.644;13.782;2023-12-20T11:01:31;100712.31;;;10.10;61.32
79150;BME280;68563;45.644;13.782;2023-12-20T11:03:57;100703.72;;;10.06;61.12
79150;BME280;68563;45.644;13.782;2023-12-20T11:06:27;100717.44;;;10.12;61.18
79150;BME280;68563;45.644;13.782;2023-12-20T11:09:06;100705.41;;;10.09;61.26
79150;BME280;68563;45.644;13.782;2023-12-20T11:14:31;100686.38;;;10.15;61.25
79150;BME280;68563;45.644;13.782;2023-12-20T11:17:10;100697.50;;;10.21;61.26
79150;BME280;68563;45.644;13.782;2023-12-20T11:22:30;100692.28;;;10.26;61.27
79150;BME280;68563;45.644;13.782;2023-12-20T11:25:14;100693.16;;;10.25;61.98
79150;BME280;68563;45.644;13.782;2023-12-20T11:27:42;100704.31;;;10.30;62.00
79150;BME280;68563;45.644;13.782;2023-12-20T11:30:09;100697.38;;;10.32;62.10
79150;BME280;68563;45.644;13.782;2023-12-20T11:32:36;100690.44;;;10.36;61.65
79150;BME280;68563;45.644;13.782;2023-12-20T11:37:37;100695.56;;;10.44;62.02
79150;BME280;68563;45.644;13.782;2023-12-20T11:40:05;100690.31;;;10.48;61.68
79150;BME280;68563;45.644;13.782;2023-12-20T11:42:39;100690.34;;;10.47;61.99
79150;BME280;68563;45.644;13.782;2023-12-20T11:45:08;100689.44;;;10.52;62.62
79150;BME280;68563;45.644;13.782;2023-12-20T11:47:34;100679.03;;;10.54;62.51
79150;BME280;68563;45.644;13.782;2023-12-20T11:50:00;100681.56;;;10.60;62.23
79150;BME280;68563;45.644;13.782;2023-12-20T11:52:29;100669.31;;;10.72;62.26
79150;BME280;68563;45.644;13.782;2023-12-20T11:54:54;100666.34;;;10.98;61.96
79150;BME280;68563;45.644;13.782;2023-12-20T11:57:19;100655.97;;;10.99;61.93
79150;BME280;68563;45.644;13.782;2023-12-20T11:59:45;100673.16;;;11.05;61.83
79150;BME280;68563;45.644;13.782;2023-12-20T12:02:11;100675.06;;;10.94;61.84
79150;BME280;68563;45.644;13.782;2023-12-20T12:04:37;100667.22;;;10.98;62.65
79150;BME280;68563;45.644;13.782;2023-12-20T12:07:02;100658.44;;;11.09;61.93
79150;BME280;68563;45.644;13.782;2023-12-20T12:09:28;100649.00;;;11.03;62.08
79150;BME280;68563;45.644;13.782;2023-12-20T12:11:54;100660.28;;;11.02;62.44
79150;BME280;68563;45.644;13.782;2023-12-20T12:14:20;100645.63;;;10.98;62.60
79150;BME280;68563;45.644;13.782;2023-12-20T12:16:46;100651.69;;;10.98;62.89
79150;BME280;68563;45.644;13.782;2023-12-20T12:19:24;100649.09;;;10.97;63.23
79150;BME280;68563;45.644;13.782;2023-12-20T12:21:51;100654.28;;;10.97;63.59
79150;BME280;68563;45.644;13.782;2023-12-20T12:24:20;100655.28;;;10.88;63.96
79150;BME280;68563;45.644;13.782;2023-12-20T12:26:50;100650.22;;;10.79;64.19
79150;BME280;68563;45.644;13.782;2023-12-20T12:29:16;100649.41;;;10.77;64.69
79150;BME280;68563;45.644;13.782;2023-12-20T12:31:41;100648.38;;;10.87;65.13
79150;BME280;68563;45.644;13.782;2023-12-20T12:34:07;100646.53;;;10.95;65.02
79150;BME280;68563;45.644;13.782;2023-12-20T12:36:34;100642.38;;;10.83;65.22
79150;BME280;68563;45.644;13.782;2023-12-20T12:39:02;100650.09;;;10.88;65.05
79150;BME280;68563;45.644;13.782;2023-12-20T12:41:29;100652.78;;;10.82;65.67
79150;BME280;68563;45.644;13.782;2023-12-20T12:43:55;100645.94;;;10.78;66.06
79150;BME280;68563;45.644;13.782;2023-12-20T12:46:20;100631.31;;;10.74;66.18
79150;BME280;68563;45.644;13.782;2023-12-20T12:48:46;100635.59;;;10.75;66.80
79150;BME280;68563;45.644;13.782;2023-12-20T12:51:12;100626.09;;;10.75;66.36